createdAt,value
2022-12-09T00:01:17.789Z,4.10
2022-12-09T00:03:45.799Z,4.07
2022-12-09T00:06:15.984Z,4.13
2022-12-09T00:08:44.232Z,4.07
2022-12-09T00:11:13.435Z,4.10
2022-12-09T00:13:41.353Z,4.37
2022-12-09T00:16:12.013Z,3.80
2022-12-09T00:18:40.123Z,4.13
2022-12-09T00:21:15.309Z,4.17
2022-12-09T00:23:43.392Z,4.20
2022-12-09T00:26:11.993Z,4.20
2022-12-09T00:28:40.463Z,4.50
2022-12-09T00:31:10.670Z,4.00
2022-12-09T00:33:39.329Z,4.30
2022-12-09T00:36:08.309Z,4.27
2022-12-09T00:38:36.784Z,4.13
2022-12-09T00:41:05.008Z,3.83
2022-12-09T00:43:33.053Z,4.10
2022-12-09T00:46:01.105Z,4.30
2022-12-09T00:48:30.964Z,3.90
2022-12-09T00:50:59.706Z,3.90
2022-12-09T00:53:27.860Z,4.33
2022-12-09T00:55:55.837Z,4.23
2022-12-09T00:58:24.139Z,4.43
2022-12-09T01:00:53.616Z,3.87
2022-12-09T01:03:21.881Z,3.90
2022-12-09T01:05:51.639Z,4.10
2022-12-09T01:08:19.868Z,3.90
2022-12-09T01:10:48.139Z,4.20
2022-12-09T01:13:19.109Z,4.20
2022-12-09T01:15:48.556Z,4.10
2022-12-09T01:18:16.810Z,4.40
2022-12-09T01:20:44.976Z,4.53
2022-12-09T01:23:14.466Z,4.07
2022-12-09T01:25:42.379Z,4.10
2022-12-09T01:28:12.009Z,3.70
2022-12-09T01:30:40.170Z,4.20
2022-12-09T01:33:08.599Z,3.97
2022-12-09T01:35:36.684Z,4.53
2022-12-09T01:38:04.627Z,4.10
2022-12-09T01:40:34.219Z,4.37
2022-12-09T01:43:02.552Z,4.37
2022-12-09T01:45:49.210Z,3.87
2022-12-09T01:48:18.624Z,4.53
2022-12-09T01:50:50.285Z,4.00
2022-12-09T01:53:18.210Z,4.43
2022-12-09T01:55:48.091Z,3.90
2022-12-09T01:58:17.915Z,4.30
2022-12-09T02:00:45.858Z,4.07
2022-12-09T02:03:14.023Z,4.23
2022-12-09T02:05:42.694Z,3.57
2022-12-09T02:08:12.784Z,4.10
2022-12-09T02:10:48.804Z,4.20
2022-12-09T02:13:22.525Z,4.50
2022-12-09T02:15:53.424Z,4.33
2022-12-09T02:18:23.528Z,4.17
2022-12-09T02:20:54.971Z,4.30
2022-12-09T02:23:25.746Z,4.30
2022-12-09T02:25:57.315Z,4.47
2022-12-09T02:28:41.014Z,4.70
2022-12-09T02:31:16.479Z,4.27
2022-12-09T02:34:12.961Z,4.43
2022-12-09T02:36:45.803Z,4.33
2022-12-09T02:39:14.335Z,4.70
2022-12-09T02:41:43.483Z,4.37
2022-12-09T02:44:13.585Z,4.13
2022-12-09T02:46:42.059Z,4.40
2022-12-09T02:49:13.514Z,4.30
2022-12-09T02:51:42.772Z,4.27
2022-12-09T02:54:14.731Z,4.13
2022-12-09T02:56:46.526Z,4.53
2022-12-09T02:59:14.703Z,4.40
2022-12-09T03:01:44.881Z,4.40
2022-12-09T03:04:18.725Z,4.60
2022-12-09T03:06:48.802Z,4.70
2022-12-09T03:09:18.340Z,4.57
2022-12-09T03:11:46.977Z,4.47
2022-12-09T03:14:17.142Z,4.73
2022-12-09T03:16:47.910Z,4.50
2022-12-09T03:19:20.466Z,4.70
2022-12-09T03:21:49.175Z,4.53
2022-12-09T03:24:18.999Z,4.43
2022-12-09T03:26:46.889Z,4.90
2022-12-09T03:29:17.694Z,4.23
2022-12-09T03:31:45.941Z,4.07
2022-12-09T03:34:15.310Z,4.47
2022-12-09T03:36:45.377Z,4.40
2022-12-09T03:39:15.136Z,4.10
2022-12-09T03:41:45.778Z,4.57
2022-12-09T03:44:15.155Z,4.50
2022-12-09T03:46:43.474Z,4.27
2022-12-09T03:49:11.574Z,4.40
2022-12-09T03:51:41.318Z,4.70
2022-12-09T03:54:14.678Z,4.37
2022-12-09T03:56:45.762Z,4.50
2022-12-09T03:59:15.385Z,4.50
2022-12-09T04:01:44.558Z,4.30
2022-12-09T04:04:15.144Z,4.30
2022-12-09T04:06:43.581Z,4.47
2022-12-09T04:09:13.275Z,4.77
2022-12-09T04:11:41.798Z,4.47
2022-12-09T04:14:15.331Z,4.43
2022-12-09T04:16:44.352Z,4.40
2022-12-09T04:19:12.520Z,4.60
2022-12-09T04:21:40.610Z,4.70
2022-12-09T04:24:09.472Z,4.77
2022-12-09T04:26:38.866Z,4.33
2022-12-09T04:29:06.992Z,4.70
2022-12-09T04:31:35.273Z,4.27
2022-12-09T04:34:08.881Z,4.70
2022-12-09T04:36:38.617Z,4.33
2022-12-09T04:39:06.874Z,4.73
2022-12-09T04:41:35.308Z,4.70
2022-12-09T04:44:04.975Z,4.90
2022-12-09T04:46:33.203Z,5.27
2022-12-09T04:49:01.277Z,5.60
2022-12-09T04:51:34.279Z,6.50
2022-12-09T04:54:07.200Z,6.50
2022-12-09T04:56:35.290Z,7.67
2022-12-09T04:59:04.942Z,8.27
2022-12-09T05:01:33.387Z,8.13
2022-12-09T05:04:02.173Z,8.17
2022-12-09T05:06:30.442Z,9.27
2022-12-09T05:08:58.856Z,9.70
2022-12-09T05:11:28.438Z,10.47
2022-12-09T05:13:56.796Z,10.30
2022-12-09T05:16:26.545Z,10.20
2022-12-09T05:18:54.905Z,11.20
2022-12-09T05:21:23.148Z,10.90
2022-12-09T05:23:51.220Z,10.93
2022-12-09T05:26:20.562Z,11.00
2022-12-09T05:28:48.882Z,12.27
2022-12-09T05:31:18.198Z,11.07
2022-12-09T05:33:47.985Z,12.90
2022-12-09T05:36:17.020Z,12.77
2022-12-09T05:38:45.714Z,12.30
2022-12-09T05:41:14.162Z,12.07
2022-12-09T05:43:42.305Z,13.43
2022-12-09T05:46:10.785Z,12.40
2022-12-09T05:48:39.093Z,11.77
2022-12-09T05:51:10.630Z,11.57
2022-12-09T05:53:39.130Z,11.50
2022-12-09T05:56:07.506Z,12.53
2022-12-09T05:58:35.635Z,12.57
2022-12-09T06:01:07.245Z,11.53
2022-12-09T06:03:35.573Z,12.23
2022-12-09T06:06:08.368Z,12.83
2022-12-09T06:08:36.926Z,12.23
2022-12-09T06:11:05.246Z,11.03
2022-12-09T06:13:34.089Z,12.60
2022-12-09T06:16:04.285Z,11.40
2022-12-09T06:18:32.898Z,11.13
2022-12-09T06:21:01.477Z,11.23
2022-12-09T06:23:30.994Z,11.17
2022-12-09T06:25:58.993Z,10.57
2022-12-09T06:28:27.324Z,10.97
2022-12-09T06:30:55.638Z,10.00
2022-12-09T06:33:52.992Z,10.47
2022-12-09T06:36:12.043Z,10.17
2022-12-09T06:38:41.918Z,10.43
2022-12-09T06:41:10.508Z,10.03
2022-12-09T06:43:38.842Z,10.70
2022-12-09T06:46:12.971Z,11.00
2022-12-09T06:48:41.225Z,9.67
2022-12-09T06:51:09.722Z,10.10
2022-12-09T06:53:37.934Z,10.10
2022-12-09T06:56:12.258Z,9.83
2022-12-09T06:58:41.325Z,9.53
2022-12-09T07:01:13.671Z,9.97
2022-12-09T07:03:42.143Z,9.50
2022-12-09T07:06:17.451Z,9.43
2022-12-09T07:08:46.318Z,8.90
2022-12-09T07:11:16.086Z,9.47
2022-12-09T07:13:44.275Z,8.13
2022-12-09T07:16:12.640Z,9.43
2022-12-09T07:18:41.383Z,8.40
2022-12-09T07:21:11.935Z,9.27
2022-12-09T07:23:40.340Z,8.00
2022-12-09T07:26:08.848Z,8.33
2022-12-09T07:28:39.346Z,8.03
2022-12-09T07:31:07.784Z,7.80
2022-12-09T07:33:35.908Z,8.10
2022-12-09T07:36:04.559Z,8.23
2022-12-09T07:38:32.854Z,8.10
2022-12-09T07:41:05.748Z,7.53
2022-12-09T07:43:34.210Z,8.27
2022-12-09T07:46:07.868Z,7.30
2022-12-09T07:48:36.267Z,8.10
2022-12-09T07:51:05.385Z,7.60
2022-12-09T07:53:34.577Z,7.33
2022-12-09T07:56:03.362Z,7.83
2022-12-09T07:58:31.501Z,8.30
2022-12-09T08:01:04.299Z,6.80
2022-12-09T08:03:34.237Z,7.33
2022-12-09T08:06:02.745Z,6.87
2022-12-09T08:08:31.100Z,7.93
2022-12-09T08:11:07.748Z,7.30
2022-12-09T08:13:36.666Z,7.10
2022-12-09T08:16:05.304Z,6.70
2022-12-09T08:18:34.985Z,6.93
2022-12-09T08:21:05.269Z,7.03
2022-12-09T08:23:33.576Z,6.87
2022-12-09T08:26:02.444Z,6.70
2022-12-09T08:28:30.689Z,6.63
2022-12-09T08:30:59.399Z,6.57
2022-12-09T08:33:27.731Z,6.47
2022-12-09T08:35:57.559Z,6.93
2022-12-09T08:38:25.834Z,6.80
2022-12-09T08:40:54.138Z,6.90
2022-12-09T08:43:22.140Z,6.30
2022-12-09T08:45:50.137Z,6.47
2022-12-09T08:48:18.422Z,6.17
2022-12-09T08:50:46.792Z,6.03
2022-12-09T08:53:16.153Z,6.03
2022-12-09T08:55:44.861Z,6.40
2022-12-09T08:58:13.492Z,6.00
2022-12-09T09:00:41.762Z,6.33
2022-12-09T09:03:10.490Z,5.93
2022-12-09T09:05:39.277Z,5.87
2022-12-09T09:08:07.466Z,5.70
2022-12-09T09:10:38.095Z,5.47
2022-12-09T09:13:06.358Z,5.80
2022-12-09T09:15:34.991Z,5.70
2022-12-09T09:18:04.712Z,5.67
2022-12-09T09:20:32.845Z,5.07
2022-12-09T09:23:03.281Z,6.07
2022-12-09T09:25:32.438Z,5.30
2022-12-09T09:28:02.285Z,5.67
2022-12-09T09:30:30.584Z,5.80
2022-12-09T09:32:59.214Z,5.80
2022-12-09T09:35:27.289Z,5.13
2022-12-09T09:37:56.126Z,5.70
2022-12-09T09:40:24.472Z,5.30
2022-12-09T09:42:52.968Z,5.50
2022-12-09T09:45:24.078Z,5.40
2022-12-09T09:47:53.898Z,4.80
2022-12-09T09:50:27.512Z,5.40
2022-12-09T09:52:56.204Z,5.20
2022-12-09T09:55:31.224Z,5.77
2022-12-09T09:58:02.805Z,5.63
2022-12-09T10:00:37.213Z,5.23
2022-12-09T10:03:10.682Z,5.33
2022-12-09T10:05:42.553Z,5.07
2022-12-09T10:08:23.816Z,4.77
2022-12-09T10:10:56.133Z,4.80
2022-12-09T10:13:30.796Z,4.97
2022-12-09T10:16:05.548Z,5.47
2022-12-09T10:18:35.327Z,4.83
2022-12-09T10:21:03.551Z,4.43
2022-12-09T10:23:33.069Z,5.27
2022-12-09T10:26:05.035Z,5.10
2022-12-09T10:28:35.192Z,4.63
2022-12-09T10:31:05.305Z,4.60
2022-12-09T10:33:35.265Z,5.07
2022-12-09T10:36:05.727Z,5.10
2022-12-09T10:38:37.013Z,4.77
2022-12-09T10:41:07.263Z,4.67
2022-12-09T10:43:35.238Z,4.87
2022-12-09T10:46:18.500Z,4.67
2022-12-09T10:48:53.056Z,4.60
2022-12-09T10:51:22.927Z,4.47
2022-12-09T10:53:52.420Z,5.07
2022-12-09T10:56:23.715Z,4.53
2022-12-09T10:58:56.565Z,4.33
2022-12-09T11:01:26.305Z,4.30
2022-12-09T11:03:54.812Z,4.43
2022-12-09T11:06:25.937Z,4.57
2022-12-09T11:08:56.715Z,4.20
2022-12-09T11:11:40.495Z,4.30
2022-12-09T11:14:23.091Z,4.50
2022-12-09T11:16:53.799Z,4.17
2022-12-09T11:19:30.878Z,4.20
2022-12-09T11:22:29.301Z,4.23
2022-12-09T11:25:06.324Z,4.10
2022-12-09T11:27:35.610Z,4.10
2022-12-09T11:30:13.100Z,3.97
2022-12-09T11:32:57.136Z,3.97
2022-12-09T11:35:30.309Z,3.90
2022-12-09T11:37:58.640Z,4.17
2022-12-09T11:40:26.814Z,3.60
2022-12-09T11:42:54.850Z,3.50
2022-12-09T11:45:26.265Z,3.60
2022-12-09T11:50:50.822Z,3.63
2022-12-09T11:53:26.613Z,3.63
2022-12-09T11:55:56.532Z,3.57
2022-12-09T11:58:26.397Z,3.70
2022-12-09T12:00:59.078Z,3.60
2022-12-09T12:03:32.962Z,3.50
2022-12-09T12:06:01.557Z,3.37
2022-12-09T12:08:31.837Z,3.60
2022-12-09T12:11:02.270Z,3.40
2022-12-09T12:13:32.950Z,3.50
2022-12-09T12:16:05.761Z,3.30
2022-12-09T12:18:37.708Z,3.43
2022-12-09T12:21:23.082Z,3.50
2022-12-09T12:24:14.214Z,3.40
2022-12-09T12:26:44.339Z,3.20
2022-12-09T12:29:20.895Z,3.10
2022-12-09T12:31:58.234Z,3.43
2022-12-09T12:34:35.745Z,2.97
2022-12-09T12:37:15.800Z,3.27
2022-12-09T12:39:49.762Z,3.20
2022-12-09T12:42:26.076Z,3.70
2022-12-09T12:45:16.448Z,3.13
2022-12-09T12:47:47.496Z,3.20
2022-12-09T12:50:33.261Z,3.30
2022-12-09T12:53:04.855Z,3.50
2022-12-09T12:55:47.127Z,3.30
2022-12-09T12:58:18.367Z,3.10
2022-12-09T13:00:53.778Z,3.20
2022-12-09T13:03:25.841Z,3.40
2022-12-09T13:05:56.776Z,3.30
2022-12-09T13:08:28.046Z,3.03
2022-12-09T13:10:57.121Z,3.10
2022-12-09T13:13:26.964Z,3.00
2022-12-09T13:15:55.895Z,3.13
2022-12-09T13:18:26.666Z,3.20
2022-12-09T13:20:57.077Z,2.77
2022-12-09T13:23:31.649Z,3.07
2022-12-09T13:26:07.686Z,3.20
2022-12-09T13:28:40.470Z,4.50
2022-12-09T13:31:09.234Z,4.00
2022-12-09T13:33:49.013Z,4.40
2022-12-09T13:36:20.878Z,5.10
2022-12-09T13:38:48.902Z,4.40
2022-12-09T13:41:56.919Z,5.13
2022-12-09T13:44:25.481Z,4.30
2022-12-09T13:46:53.395Z,4.40
2022-12-09T13:49:21.651Z,4.40
2022-12-09T13:51:52.454Z,3.97
2022-12-09T13:54:21.070Z,3.70
2022-12-09T13:56:51.410Z,3.80
2022-12-09T13:59:39.842Z,3.80
2022-12-09T14:02:14.869Z,3.80
2022-12-09T14:04:47.711Z,3.30
2022-12-09T14:07:22.834Z,4.07
2022-12-09T14:09:51.757Z,3.60
2022-12-09T14:12:53.194Z,3.47
2022-12-09T14:15:39.445Z,3.73
2022-12-09T14:18:27.967Z,3.50
2022-12-09T14:21:25.245Z,3.57
2022-12-09T14:24:31.006Z,3.33
2022-12-09T14:27:16.140Z,3.03
2022-12-09T14:29:55.168Z,3.33
2022-12-09T14:32:30.338Z,3.43
2022-12-09T14:35:17.758Z,3.27
2022-12-09T14:38:13.937Z,3.50
2022-12-09T14:40:57.362Z,3.50
2022-12-09T14:43:50.738Z,3.23
2022-12-09T14:46:27.104Z,2.97
2022-12-09T14:48:57.480Z,3.30
2022-12-09T14:51:35.608Z,3.30
2022-12-09T14:54:05.891Z,3.00
2022-12-09T14:56:35.297Z,3.20
2022-12-09T14:59:05.984Z,3.40
2022-12-09T15:01:52.056Z,3.07
2022-12-09T15:04:33.393Z,3.10
2022-12-09T15:07:09.628Z,3.17
2022-12-09T15:09:37.628Z,3.17
2022-12-09T15:12:10.754Z,3.20
2022-12-09T15:14:38.853Z,3.13
2022-12-09T15:17:06.941Z,3.03
2022-12-09T15:19:59.678Z,2.77
2022-12-09T15:22:24.885Z,2.80
2022-12-09T15:24:52.825Z,2.80
2022-12-09T15:27:23.558Z,3.00
2022-12-09T15:29:51.696Z,2.87
2022-12-09T15:32:22.223Z,3.00
2022-12-09T15:34:50.435Z,3.10
2022-12-09T15:37:18.497Z,3.10
2022-12-09T15:39:50.079Z,2.77
2022-12-09T15:42:22.020Z,2.47
2022-12-09T15:44:53.337Z,2.90
2022-12-09T15:47:23.320Z,2.90
2022-12-09T15:49:53.595Z,2.97
2022-12-09T15:52:23.201Z,2.80
2022-12-09T15:54:51.314Z,2.90
2022-12-09T15:57:20.136Z,2.83
2022-12-09T15:59:55.496Z,3.20
2022-12-09T16:02:27.476Z,2.50
2022-12-09T16:04:56.433Z,2.90
2022-12-09T16:07:25.132Z,2.80
2022-12-09T16:10:04.593Z,2.80
2022-12-09T16:12:34.347Z,2.50
2022-12-09T16:15:02.335Z,2.97
2022-12-09T16:17:33.206Z,2.70
2022-12-09T16:20:24.449Z,2.80
2022-12-09T16:22:52.333Z,2.77
2022-12-09T16:25:22.397Z,3.00
2022-12-09T16:27:51.538Z,2.87
2022-12-09T16:30:20.414Z,2.50
2022-12-09T16:32:51.089Z,2.80
2022-12-09T16:35:24.163Z,2.90
2022-12-09T16:38:14.831Z,2.83
2022-12-09T16:41:01.643Z,2.90
2022-12-09T16:43:30.477Z,2.97
2022-12-09T16:45:58.904Z,3.33
2022-12-09T16:48:29.094Z,3.60
2022-12-09T16:50:58.425Z,3.00
2022-12-09T16:53:28.305Z,3.67
2022-12-09T16:55:57.331Z,3.07
2022-12-09T16:58:25.274Z,3.40
2022-12-09T17:00:53.247Z,3.00
2022-12-09T17:03:32.900Z,3.40
2022-12-09T17:06:02.172Z,3.23
2022-12-09T17:08:32.020Z,3.50
2022-12-09T17:11:00.030Z,3.10
2022-12-09T17:13:28.300Z,3.20
2022-12-09T17:15:58.423Z,3.20
2022-12-09T17:18:26.592Z,3.13
2022-12-09T17:21:01.927Z,3.40
2022-12-09T17:23:33.361Z,3.50
2022-12-09T17:26:05.793Z,3.57
2022-12-09T17:28:35.357Z,3.50
2022-12-09T17:31:03.324Z,3.50
2022-12-09T17:33:31.275Z,3.63
2022-12-09T17:35:59.266Z,3.50
2022-12-09T17:38:29.180Z,3.40
2022-12-09T17:40:57.278Z,3.63
2022-12-09T17:43:25.193Z,4.27
2022-12-09T17:45:53.368Z,4.20
2022-12-09T17:48:21.568Z,3.73
2022-12-09T17:50:49.497Z,4.27
2022-12-09T17:53:17.552Z,4.33
2022-12-09T17:55:46.988Z,4.10
2022-12-09T17:58:15.095Z,4.60
2022-12-09T18:00:43.237Z,5.00
2022-12-09T18:03:17.732Z,4.50
2022-12-09T18:05:50.383Z,4.47
2022-12-09T18:08:18.719Z,4.80
2022-12-09T18:10:48.254Z,4.70
2022-12-09T18:13:16.337Z,4.30
2022-12-09T18:15:44.244Z,4.93
2022-12-09T18:18:12.320Z,4.57
2022-12-09T18:20:40.260Z,4.47
2022-12-09T18:23:08.332Z,4.87
2022-12-09T18:25:36.273Z,4.80
2022-12-09T18:28:06.156Z,4.53
2022-12-09T18:30:34.196Z,4.80
2022-12-09T18:33:02.253Z,5.13
2022-12-09T18:35:30.133Z,4.87
2022-12-09T18:38:06.012Z,4.70
2022-12-09T18:41:00.261Z,4.60
2022-12-09T18:43:30.258Z,4.37
2022-12-09T18:46:02.186Z,4.80
2022-12-09T18:48:30.812Z,4.20
2022-12-09T18:50:58.726Z,4.87
2022-12-09T18:53:26.985Z,3.90
2022-12-09T18:55:54.848Z,4.67
2022-12-09T18:58:42.520Z,4.20
2022-12-09T19:01:17.227Z,4.10
2022-12-09T19:03:45.309Z,4.50
2022-12-09T19:06:21.042Z,4.13
2022-12-09T19:08:53.592Z,4.30
2022-12-09T19:11:22.366Z,4.27
2022-12-09T19:13:50.412Z,4.43
2022-12-09T19:16:19.749Z,4.63
2022-12-09T19:18:47.963Z,4.23
2022-12-09T19:21:16.648Z,4.57
2022-12-09T19:23:45.563Z,4.60
2022-12-09T19:26:13.943Z,4.40
2022-12-09T19:28:46.621Z,4.03
2022-12-09T19:31:16.251Z,4.20
2022-12-09T19:33:45.856Z,4.50
2022-12-09T19:36:13.748Z,4.20
2022-12-09T19:38:42.380Z,4.60
2022-12-09T19:41:10.465Z,4.30
2022-12-09T19:43:38.396Z,4.67
2022-12-09T19:46:07.464Z,4.13
2022-12-09T19:48:36.927Z,4.20
2022-12-09T19:51:07.809Z,4.60
2022-12-09T19:53:36.141Z,4.47
2022-12-09T19:56:04.790Z,4.20
2022-12-09T19:58:33.851Z,4.53
2022-12-09T20:01:08.507Z,4.57
2022-12-09T20:03:36.561Z,4.33
2022-12-09T20:06:06.840Z,4.37
2022-12-09T20:08:34.754Z,4.33
2022-12-09T20:11:02.679Z,4.50
2022-12-09T20:13:32.188Z,4.23
2022-12-09T20:16:04.816Z,3.97
2022-12-09T20:18:32.861Z,4.40
2022-12-09T20:21:01.859Z,4.00
2022-12-09T20:23:31.117Z,4.30
2022-12-09T20:26:04.632Z,4.60
2022-12-09T20:28:32.661Z,4.20
2022-12-09T20:31:04.012Z,4.30
2022-12-09T20:33:32.136Z,4.10
2022-12-09T20:36:05.797Z,4.00
2022-12-09T20:38:35.947Z,4.60
2022-12-09T20:41:05.289Z,4.30
2022-12-09T20:43:39.226Z,4.60
2022-12-09T20:46:08.623Z,4.30
2022-12-09T20:48:36.903Z,4.40
2022-12-09T20:51:06.167Z,4.30
2022-12-09T20:53:35.505Z,4.43
2022-12-09T20:56:04.340Z,4.23
2022-12-09T20:58:32.551Z,4.23
2022-12-09T21:01:06.131Z,4.30
2022-12-09T21:03:34.080Z,4.47
2022-12-09T21:06:02.194Z,4.43
2022-12-09T21:08:31.899Z,4.13
2022-12-09T21:11:05.334Z,4.67
2022-12-09T21:13:33.324Z,4.73
2022-12-09T21:16:05.781Z,4.57
2022-12-09T21:18:33.884Z,4.50
2022-12-09T21:21:01.739Z,4.20
2022-12-09T21:23:34.379Z,4.67
2022-12-09T21:26:07.944Z,4.57
2022-12-09T21:28:35.856Z,4.37
2022-12-09T21:31:08.217Z,4.20
2022-12-09T21:33:36.648Z,4.30
2022-12-09T21:36:06.660Z,4.83
2022-12-09T21:38:34.611Z,4.20
2022-12-09T21:41:04.690Z,4.03
2022-12-09T21:43:34.341Z,4.20
2022-12-09T21:46:03.375Z,4.27
2022-12-09T21:48:31.434Z,4.00
2022-12-09T21:51:00.374Z,4.30
2022-12-09T21:53:28.353Z,3.80
2022-12-09T21:55:56.261Z,4.37
2022-12-09T21:58:24.208Z,3.90
2022-12-09T22:00:53.645Z,4.23
2022-12-09T22:03:21.605Z,4.30
2022-12-09T22:05:52.605Z,4.47
2022-12-09T22:08:24.846Z,4.47
2022-12-09T22:10:52.841Z,4.20
2022-12-09T22:13:21.982Z,4.20
2022-12-09T22:15:50.062Z,4.37
2022-12-09T22:18:19.900Z,4.17
2022-12-09T22:21:23.460Z,4.63
2022-12-09T22:23:36.029Z,4.00
2022-12-09T22:26:06.178Z,3.77
2022-12-09T22:28:34.194Z,3.90
2022-12-09T22:31:02.173Z,4.10
2022-12-09T22:33:31.673Z,4.07
2022-12-09T22:36:04.095Z,4.13
2022-12-09T22:38:32.545Z,3.80
2022-12-09T22:41:04.465Z,4.20
2022-12-09T22:43:37.761Z,3.80
2022-12-09T22:46:07.048Z,4.37
2022-12-09T22:48:36.445Z,4.00
2022-12-09T22:51:05.471Z,3.90
2022-12-09T22:53:33.371Z,4.00
2022-12-09T22:56:01.315Z,3.87
2022-12-09T22:58:29.225Z,3.80
2022-12-09T23:00:57.538Z,3.90
2022-12-09T23:03:25.598Z,4.20
2022-12-09T23:05:55.337Z,3.60
2022-12-09T23:08:23.433Z,3.97
2022-12-09T23:10:51.361Z,3.63
2022-12-09T23:13:19.322Z,3.87
2022-12-09T23:15:47.342Z,3.77
2022-12-09T23:18:15.349Z,3.87
2022-12-09T23:20:43.527Z,3.80
2022-12-09T23:23:12.764Z,3.93
2022-12-09T23:25:41.615Z,3.97
2022-12-09T23:28:11.431Z,4.20
2022-12-09T23:30:39.423Z,3.77
2022-12-09T23:33:07.375Z,3.90
2022-12-09T23:35:38.436Z,4.20
2022-12-09T23:38:06.326Z,3.63
2022-12-09T23:40:35.558Z,3.70
2022-12-09T23:43:03.433Z,4.10
2022-12-09T23:45:31.589Z,3.80
2022-12-09T23:47:59.517Z,3.50
2022-12-09T23:50:27.593Z,3.90
2022-12-09T23:52:55.523Z,3.60
2022-12-09T23:55:23.465Z,3.67
2022-12-09T23:57:52.849Z,4.00
